sensor_id;sensor_type;location;lat;lon;timestamp;P1;durP1;ratioP1;P2;durP2;ratioP2
51556;SDS011;38766;53.194;5.532;2022-12-18T00:01:05;89.55;;;35.28;;
51556;SDS011;38766;53.194;5.532;2022-12-18T00:03:45;94.53;;;37.03;;
51556;SDS011;38766;53.194;5.532;2022-12-18T00:06:11;88.85;;;34.53;;
51556;SDS011;38766;53.194;5.532;2022-12-18T00:08:38;100.50;;;38.38;;
51556;SDS011;38766;53.194;5.532;2022-12-18T00:11:05;96.15;;;35.50;;
51556;SDS011;38766;53.194;5.532;2022-12-18T00:13:33;92.18;;;35.55;;
51556;SDS011;38766;53.194;5.532;2022-12-18T00:16:06;92.25;;;34.30;;
51556;SDS011;38766;53.194;5.532;2022-12-18T00:18:34;89.30;;;35.33;;
51556;SDS011;38766;53.194;5.532;2022-12-18T00:21:00;90.10;;;35.83;;
51556;SDS011;38766;53.194;5.532;2022-12-18T00:23:28;96.55;;;34.75;;
51556;SDS011;38766;53.194;5.532;2022-12-18T00:25:58;85.45;;;33.47;;
51556;SDS011;38766;53.194;5.532;2022-12-18T00:28:25;91.60;;;36.03;;
51556;SDS011;38766;53.194;5.532;2022-12-18T00:30:50;83.75;;;33.92;;
51556;SDS011;38766;53.194;5.532;2022-12-18T00:33:23;97.43;;;35.92;;
51556;SDS011;38766;53.194;5.532;2022-12-18T00:35:49;91.85;;;36.35;;
51556;SDS011;38766;53.194;5.532;2022-12-18T00:38:15;88.50;;;36.78;;
51556;SDS011;38766;53.194;5.532;2022-12-18T00:40:40;93.65;;;36.47;;
51556;SDS011;38766;53.194;5.532;2022-12-18T00:43:09;93.75;;;36.35;;
51556;SDS011;38766;53.194;5.532;2022-12-18T00:45:34;93.03;;;36.33;;
51556;SDS011;38766;53.194;5.532;2022-12-18T00:48:00;96.53;;;37.15;;
51556;SDS011;38766;53.194;5.532;2022-12-18T00:50:26;105.22;;;36.55;;
51556;SDS011;38766;53.194;5.532;2022-12-18T00:52:52;91.70;;;34.05;;
51556;SDS011;38766;53.194;5.532;2022-12-18T00:55:17;79.75;;;33.28;;
51556;SDS011;38766;53.194;5.532;2022-12-18T00:57:43;93.57;;;37.05;;
51556;SDS011;38766;53.194;5.532;2022-12-18T01:00:10;98.05;;;38.38;;
51556;SDS011;38766;53.194;5.532;2022-12-18T01:02:38;98.25;;;40.00;;
51556;SDS011;38766;53.194;5.532;2022-12-18T01:05:04;91.45;;;36.30;;
51556;SDS011;38766;53.194;5.532;2022-12-18T01:07:30;94.10;;;36.40;;
51556;SDS011;38766;53.194;5.532;2022-12-18T01:09:56;89.15;;;35.33;;
51556;SDS011;38766;53.194;5.532;2022-12-18T01:12:21;102.18;;;37.80;;
51556;SDS011;38766;53.194;5.532;2022-12-18T01:14:47;101.28;;;38.05;;
51556;SDS011;38766;53.194;5.532;2022-12-18T01:17:12;98.43;;;38.17;;
51556;SDS011;38766;53.194;5.532;2022-12-18T01:19:39;90.55;;;37.28;;
51556;SDS011;38766;53.194;5.532;2022-12-18T01:22:05;94.15;;;35.28;;
51556;SDS011;38766;53.194;5.532;2022-12-18T01:24:34;87.38;;;34.42;;
51556;SDS011;38766;53.194;5.532;2022-12-18T01:27:00;89.90;;;35.97;;
51556;SDS011;38766;53.194;5.532;2022-12-18T01:29:25;98.13;;;38.55;;
51556;SDS011;38766;53.194;5.532;2022-12-18T01:31:54;84.68;;;32.65;;
51556;SDS011;38766;53.194;5.532;2022-12-18T01:34:20;96.50;;;37.83;;
51556;SDS011;38766;53.194;5.532;2022-12-18T01:36:46;88.40;;;35.58;;
51556;SDS011;38766;53.194;5.532;2022-12-18T01:39:13;80.95;;;32.25;;
51556;SDS011;38766;53.194;5.532;2022-12-18T01:41:39;82.15;;;34.42;;
51556;SDS011;38766;53.194;5.532;2022-12-18T01:49:55;84.03;;;33.25;;
51556;SDS011;38766;53.194;5.532;2022-12-18T01:52:24;83.60;;;32.80;;
51556;SDS011;38766;53.194;5.532;2022-12-18T01:54:53;91.47;;;34.65;;
51556;SDS011;38766;53.194;5.532;2022-12-18T01:57:19;97.93;;;35.15;;
51556;SDS011;38766;53.194;5.532;2022-12-18T01:59:45;92.97;;;35.33;;
51556;SDS011;38766;53.194;5.532;2022-12-18T02:02:17;88.07;;;34.70;;
51556;SDS011;38766;53.194;5.532;2022-12-18T02:04:44;85.15;;;34.15;;
51556;SDS011;38766;53.194;5.532;2022-12-18T02:10:06;73.20;;;30.15;;
51556;SDS011;38766;53.194;5.532;2022-12-18T02:15:29;81.88;;;32.70;;
51556;SDS011;38766;53.194;5.532;2022-12-18T02:18:08;90.47;;;33.13;;
51556;SDS011;38766;53.194;5.532;2022-12-18T02:20:44;88.70;;;32.83;;
51556;SDS011;38766;53.194;5.532;2022-12-18T02:26:15;85.78;;;34.40;;
51556;SDS011;38766;53.194;5.532;2022-12-18T02:28:46;77.50;;;31.42;;
51556;SDS011;38766;53.194;5.532;2022-12-18T02:31:26;86.80;;;32.80;;
51556;SDS011;38766;53.194;5.532;2022-12-18T02:33:58;88.80;;;33.00;;
51556;SDS011;38766;53.194;5.532;2022-12-18T02:36:28;86.82;;;33.22;;
51556;SDS011;38766;53.194;5.532;2022-12-18T02:38:57;88.15;;;34.55;;
51556;SDS011;38766;53.194;5.532;2022-12-18T02:41:25;94.47;;;34.85;;
51556;SDS011;38766;53.194;5.532;2022-12-18T02:43:55;87.03;;;33.78;;
51556;SDS011;38766;53.194;5.532;2022-12-18T03:05:10;89.15;;;33.70;;
51556;SDS011;38766;53.194;5.532;2022-12-18T03:08:00;85.47;;;31.58;;
51556;SDS011;38766;53.194;5.532;2022-12-18T03:10:29;83.20;;;30.73;;
51556;SDS011;38766;53.194;5.532;2022-12-18T03:13:01;89.80;;;31.92;;
51556;SDS011;38766;53.194;5.532;2022-12-18T03:18:03;89.70;;;32.90;;
51556;SDS011;38766;53.194;5.532;2022-12-18T03:20:34;81.60;;;30.27;;
51556;SDS011;38766;53.194;5.532;2022-12-18T03:23:09;92.78;;;32.65;;
51556;SDS011;38766;53.194;5.532;2022-12-18T03:25:42;87.47;;;31.02;;
51556;SDS011;38766;53.194;5.532;2022-12-18T03:28:14;93.38;;;34.42;;
51556;SDS011;38766;53.194;5.532;2022-12-18T03:30:45;80.88;;;31.17;;
51556;SDS011;38766;53.194;5.532;2022-12-18T03:36:13;79.68;;;30.58;;
51556;SDS011;38766;53.194;5.532;2022-12-18T03:38:40;95.30;;;30.27;;
51556;SDS011;38766;53.194;5.532;2022-12-18T03:41:19;77.60;;;31.73;;
51556;SDS011;38766;53.194;5.532;2022-12-18T03:43:56;83.70;;;30.15;;
51556;SDS011;38766;53.194;5.532;2022-12-18T03:49:14;74.25;;;28.80;;
51556;SDS011;38766;53.194;5.532;2022-12-18T03:52:07;66.70;;;27.73;;
51556;SDS011;38766;53.194;5.532;2022-12-18T03:54:42;69.57;;;27.95;;
51556;SDS011;38766;53.194;5.532;2022-12-18T03:57:15;75.22;;;29.42;;
51556;SDS011;38766;53.194;5.532;2022-12-18T03:59:43;71.80;;;28.42;;
51556;SDS011;38766;53.194;5.532;2022-12-18T04:02:11;80.82;;;28.77;;
51556;SDS011;38766;53.194;5.532;2022-12-18T04:04:38;74.15;;;28.10;;
51556;SDS011;38766;53.194;5.532;2022-12-18T04:07:05;74.78;;;29.15;;
51556;SDS011;38766;53.194;5.532;2022-12-18T04:09:31;73.93;;;29.95;;
51556;SDS011;38766;53.194;5.532;2022-12-18T04:11:59;72.38;;;28.70;;
51556;SDS011;38766;53.194;5.532;2022-12-18T04:14:24;71.68;;;27.48;;
51556;SDS011;38766;53.194;5.532;2022-12-18T04:16:50;76.22;;;29.98;;
51556;SDS011;38766;53.194;5.532;2022-12-18T04:19:16;76.07;;;29.80;;
51556;SDS011;38766;53.194;5.532;2022-12-18T04:21:41;74.68;;;30.15;;
51556;SDS011;38766;53.194;5.532;2022-12-18T04:24:07;73.32;;;29.23;;
51556;SDS011;38766;53.194;5.532;2022-12-18T04:26:33;77.10;;;28.23;;
51556;SDS011;38766;53.194;5.532;2022-12-18T04:28:59;76.05;;;29.58;;
51556;SDS011;38766;53.194;5.532;2022-12-18T04:31:25;73.78;;;28.27;;
51556;SDS011;38766;53.194;5.532;2022-12-18T04:33:51;76.90;;;29.05;;
51556;SDS011;38766;53.194;5.532;2022-12-18T04:36:16;75.05;;;28.65;;
51556;SDS011;38766;53.194;5.532;2022-12-18T04:38:42;78.15;;;28.80;;
51556;SDS011;38766;53.194;5.532;2022-12-18T04:41:08;73.53;;;29.30;;
51556;SDS011;38766;53.194;5.532;2022-12-18T04:43:33;75.30;;;29.63;;
51556;SDS011;38766;53.194;5.532;2022-12-18T04:46:03;86.78;;;30.25;;
51556;SDS011;38766;53.194;5.532;2022-12-18T04:48:30;80.75;;;30.70;;
51556;SDS011;38766;53.194;5.532;2022-12-18T04:50:56;78.05;;;29.27;;
51556;SDS011;38766;53.194;5.532;2022-12-18T04:53:21;76.07;;;30.30;;
51556;SDS011;38766;53.194;5.532;2022-12-18T04:55:47;67.93;;;27.52;;
51556;SDS011;38766;53.194;5.532;2022-12-18T04:58:12;79.97;;;32.58;;
51556;SDS011;38766;53.194;5.532;2022-12-18T05:00:38;71.53;;;28.83;;
51556;SDS011;38766;53.194;5.532;2022-12-18T05:03:04;82.63;;;32.22;;
51556;SDS011;38766;53.194;5.532;2022-12-18T05:05:30;79.95;;;30.60;;
51556;SDS011;38766;53.194;5.532;2022-12-18T05:07:56;73.75;;;29.55;;
51556;SDS011;38766;53.194;5.532;2022-12-18T05:10:21;79.50;;;29.25;;
51556;SDS011;38766;53.194;5.532;2022-12-18T05:12:47;75.25;;;30.50;;
51556;SDS011;38766;53.194;5.532;2022-12-18T05:15:31;73.82;;;27.13;;
51556;SDS011;38766;53.194;5.532;2022-12-18T05:17:57;70.15;;;26.52;;
51556;SDS011;38766;53.194;5.532;2022-12-18T05:20:24;80.97;;;29.67;;
51556;SDS011;38766;53.194;5.532;2022-12-18T05:22:51;73.68;;;27.42;;
51556;SDS011;38766;53.194;5.532;2022-12-18T05:25:17;71.75;;;27.63;;
51556;SDS011;38766;53.194;5.532;2022-12-18T05:27:43;70.07;;;26.90;;
51556;SDS011;38766;53.194;5.532;2022-12-18T05:30:10;68.85;;;27.27;;
51556;SDS011;38766;53.194;5.532;2022-12-18T05:32:36;69.38;;;27.20;;
51556;SDS011;38766;53.194;5.532;2022-12-18T05:35:03;68.30;;;27.73;;
51556;SDS011;38766;53.194;5.532;2022-12-18T05:37:30;66.60;;;26.08;;
51556;SDS011;38766;53.194;5.532;2022-12-18T05:39:56;68.38;;;26.73;;
51556;SDS011;38766;53.194;5.532;2022-12-18T05:42:21;72.65;;;26.70;;
51556;SDS011;38766;53.194;5.532;2022-12-18T05:44:47;64.15;;;26.92;;
51556;SDS011;38766;53.194;5.532;2022-12-18T05:47:13;62.28;;;26.50;;
51556;SDS011;38766;53.194;5.532;2022-12-18T05:49:38;66.97;;;27.75;;
51556;SDS011;38766;53.194;5.532;2022-12-18T05:52:04;61.03;;;25.70;;
51556;SDS011;38766;53.194;5.532;2022-12-18T05:54:30;68.78;;;27.85;;
51556;SDS011;38766;53.194;5.532;2022-12-18T05:56:56;67.20;;;26.92;;
51556;SDS011;38766;53.194;5.532;2022-12-18T05:59:25;64.57;;;26.70;;
51556;SDS011;38766;53.194;5.532;2022-12-18T06:01:50;64.43;;;26.25;;
51556;SDS011;38766;53.194;5.532;2022-12-18T06:04:16;68.95;;;26.05;;
51556;SDS011;38766;53.194;5.532;2022-12-18T06:06:42;64.15;;;26.08;;
51556;SDS011;38766;53.194;5.532;2022-12-18T06:09:07;67.72;;;28.80;;
51556;SDS011;38766;53.194;5.532;2022-12-18T06:11:35;66.13;;;26.73;;
51556;SDS011;38766;53.194;5.532;2022-12-18T06:14:02;66.65;;;26.83;;
51556;SDS011;38766;53.194;5.532;2022-12-18T06:16:29;67.05;;;27.98;;
51556;SDS011;38766;53.194;5.532;2022-12-18T06:18:56;60.90;;;23.85;;
51556;SDS011;38766;53.194;5.532;2022-12-18T06:21:26;66.80;;;26.20;;
51556;SDS011;38766;53.194;5.532;2022-12-18T06:23:52;58.92;;;24.90;;
51556;SDS011;38766;53.194;5.532;2022-12-18T06:26:17;65.40;;;27.67;;
51556;SDS011;38766;53.194;5.532;2022-12-18T06:28:43;58.97;;;25.88;;
51556;SDS011;38766;53.194;5.532;2022-12-18T06:31:09;66.32;;;26.85;;
51556;SDS011;38766;53.194;5.532;2022-12-18T06:33:35;60.03;;;26.05;;
51556;SDS011;38766;53.194;5.532;2022-12-18T06:36:02;60.72;;;26.00;;
51556;SDS011;38766;53.194;5.532;2022-12-18T06:38:29;62.60;;;24.45;;
51556;SDS011;38766;53.194;5.532;2022-12-18T06:40:56;56.53;;;24.70;;
51556;SDS011;38766;53.194;5.532;2022-12-18T06:43:21;57.53;;;25.48;;
51556;SDS011;38766;53.194;5.532;2022-12-18T06:45:47;59.72;;;25.33;;
51556;SDS011;38766;53.194;5.532;2022-12-18T06:48:17;52.95;;;25.30;;
51556;SDS011;38766;53.194;5.532;2022-12-18T06:50:44;55.75;;;24.38;;
51556;SDS011;38766;53.194;5.532;2022-12-18T06:53:10;59.58;;;25.77;;
51556;SDS011;38766;53.194;5.532;2022-12-18T06:55:35;52.90;;;24.00;;
51556;SDS011;38766;53.194;5.532;2022-12-18T06:58:01;56.42;;;24.65;;
51556;SDS011;38766;53.194;5.532;2022-12-18T07:00:27;62.25;;;24.52;;
51556;SDS011;38766;53.194;5.532;2022-12-18T07:02:52;54.25;;;23.98;;
51556;SDS011;38766;53.194;5.532;2022-12-18T07:05:18;63.75;;;24.85;;
51556;SDS011;38766;53.194;5.532;2022-12-18T07:07:43;51.25;;;22.25;;
51556;SDS011;38766;53.194;5.532;2022-12-18T07:10:09;57.50;;;23.10;;
51556;SDS011;38766;53.194;5.532;2022-12-18T07:12:35;52.88;;;24.70;;
51556;SDS011;38766;53.194;5.532;2022-12-18T07:15:04;51.10;;;23.50;;
51556;SDS011;38766;53.194;5.532;2022-12-18T07:17:30;57.13;;;23.23;;
51556;SDS011;38766;53.194;5.532;2022-12-18T07:19:55;50.67;;;23.40;;
51556;SDS011;38766;53.194;5.532;2022-12-18T07:22:21;54.05;;;24.45;;
51556;SDS011;38766;53.194;5.532;2022-12-18T07:24:47;52.85;;;24.08;;
51556;SDS011;38766;53.194;5.532;2022-12-18T07:27:14;56.78;;;23.58;;
51556;SDS011;38766;53.194;5.532;2022-12-18T07:29:39;48.13;;;22.33;;
51556;SDS011;38766;53.194;5.532;2022-12-18T07:32:05;55.58;;;21.98;;
51556;SDS011;38766;53.194;5.532;2022-12-18T07:34:32;52.13;;;23.90;;
51556;SDS011;38766;53.194;5.532;2022-12-18T07:36:57;46.17;;;21.77;;
51556;SDS011;38766;53.194;5.532;2022-12-18T07:39:23;54.30;;;22.67;;
51556;SDS011;38766;53.194;5.532;2022-12-18T07:41:49;47.58;;;21.77;;
51556;SDS011;38766;53.194;5.532;2022-12-18T07:44:34;48.47;;;20.98;;
51556;SDS011;38766;53.194;5.532;2022-12-18T07:47:00;50.55;;;20.83;;
51556;SDS011;38766;53.194;5.532;2022-12-18T07:49:26;46.15;;;20.85;;
51556;SDS011;38766;53.194;5.532;2022-12-18T07:51:53;43.15;;;20.10;;
51556;SDS011;38766;53.194;5.532;2022-12-18T07:54:21;44.60;;;21.23;;
51556;SDS011;38766;53.194;5.532;2022-12-18T07:56:47;44.75;;;20.85;;
51556;SDS011;38766;53.194;5.532;2022-12-18T07:59:12;47.50;;;20.20;;
51556;SDS011;38766;53.194;5.532;2022-12-18T08:01:38;47.22;;;19.83;;
51556;SDS011;38766;53.194;5.532;2022-12-18T08:04:04;43.55;;;20.55;;
51556;SDS011;38766;53.194;5.532;2022-12-18T08:06:30;42.70;;;20.20;;
51556;SDS011;38766;53.194;5.532;2022-12-18T08:08:55;48.15;;;21.73;;
51556;SDS011;38766;53.194;5.532;2022-12-18T08:11:22;47.53;;;20.42;;
51556;SDS011;38766;53.194;5.532;2022-12-18T08:13:49;47.78;;;20.45;;
51556;SDS011;38766;53.194;5.532;2022-12-18T08:16:14;46.15;;;19.58;;
51556;SDS011;38766;53.194;5.532;2022-12-18T08:18:40;46.33;;;19.25;;
51556;SDS011;38766;53.194;5.532;2022-12-18T08:21:13;41.00;;;19.42;;
51556;SDS011;38766;53.194;5.532;2022-12-18T08:23:48;42.33;;;20.10;;
51556;SDS011;38766;53.194;5.532;2022-12-18T08:26:15;39.38;;;17.92;;
51556;SDS011;38766;53.194;5.532;2022-12-18T08:28:41;39.10;;;17.75;;
51556;SDS011;38766;53.194;5.532;2022-12-18T08:31:08;39.92;;;18.75;;
51556;SDS011;38766;53.194;5.532;2022-12-18T08:33:34;45.83;;;21.30;;
51556;SDS011;38766;53.194;5.532;2022-12-18T08:36:01;39.95;;;18.83;;
51556;SDS011;38766;53.194;5.532;2022-12-18T08:38:28;41.15;;;19.95;;
51556;SDS011;38766;53.194;5.532;2022-12-18T08:41:04;44.58;;;18.85;;
51556;SDS011;38766;53.194;5.532;2022-12-18T08:43:31;36.45;;;17.42;;
51556;SDS011;38766;53.194;5.532;2022-12-18T08:46:16;40.88;;;17.45;;
51556;SDS011;38766;53.194;5.532;2022-12-18T08:48:43;39.50;;;18.30;;
51556;SDS011;38766;53.194;5.532;2022-12-18T08:51:09;45.85;;;18.70;;
51556;SDS011;38766;53.194;5.532;2022-12-18T08:53:35;33.83;;;17.10;;
51556;SDS011;38766;53.194;5.532;2022-12-18T08:56:01;38.13;;;17.63;;
51556;SDS011;38766;53.194;5.532;2022-12-18T08:58:27;39.42;;;19.02;;
51556;SDS011;38766;53.194;5.532;2022-12-18T09:00:52;39.50;;;18.80;;
51556;SDS011;38766;53.194;5.532;2022-12-18T09:03:18;43.50;;;19.10;;
51556;SDS011;38766;53.194;5.532;2022-12-18T09:05:47;41.90;;;19.30;;
51556;SDS011;38766;53.194;5.532;2022-12-18T09:08:13;37.83;;;18.50;;
51556;SDS011;38766;53.194;5.532;2022-12-18T09:10:45;35.72;;;17.45;;
51556;SDS011;38766;53.194;5.532;2022-12-18T09:13:12;33.40;;;18.08;;
51556;SDS011;38766;53.194;5.532;2022-12-18T09:15:43;33.72;;;18.25;;
51556;SDS011;38766;53.194;5.532;2022-12-18T09:18:20;36.63;;;18.23;;
51556;SDS011;38766;53.194;5.532;2022-12-18T09:20:46;36.47;;;17.75;;
51556;SDS011;38766;53.194;5.532;2022-12-18T09:23:12;34.22;;;17.48;;
51556;SDS011;38766;53.194;5.532;2022-12-18T09:25:38;38.65;;;18.13;;
51556;SDS011;38766;53.194;5.532;2022-12-18T09:28:05;39.55;;;17.77;;
51556;SDS011;38766;53.194;5.532;2022-12-18T09:30:37;31.33;;;17.77;;
51556;SDS011;38766;53.194;5.532;2022-12-18T09:33:06;37.13;;;17.40;;
51556;SDS011;38766;53.194;5.532;2022-12-18T09:35:32;35.10;;;18.10;;
51556;SDS011;38766;53.194;5.532;2022-12-18T09:37:57;35.65;;;17.27;;
51556;SDS011;38766;53.194;5.532;2022-12-18T09:40:25;36.65;;;19.08;;
51556;SDS011;38766;53.194;5.532;2022-12-18T09:42:54;32.28;;;16.75;;
51556;SDS011;38766;53.194;5.532;2022-12-18T09:45:24;31.50;;;17.33;;
51556;SDS011;38766;53.194;5.532;2022-12-18T09:47:50;31.38;;;15.18;;
51556;SDS011;38766;53.194;5.532;2022-12-18T09:52:58;31.23;;;15.40;;
51556;SDS011;38766;53.194;5.532;2022-12-18T09:55:30;28.05;;;15.15;;
51556;SDS011;38766;53.194;5.532;2022-12-18T09:58:16;29.48;;;15.32;;
51556;SDS011;38766;53.194;5.532;2022-12-18T10:00:51;28.65;;;15.10;;
51556;SDS011;38766;53.194;5.532;2022-12-18T10:03:18;30.45;;;13.93;;
51556;SDS011;38766;53.194;5.532;2022-12-18T10:11:22;31.15;;;14.48;;
51556;SDS011;38766;53.194;5.532;2022-12-18T10:14:00;27.10;;;14.50;;
51556;SDS011;38766;53.194;5.532;2022-12-18T10:19:53;27.58;;;14.13;;
51556;SDS011;38766;53.194;5.532;2022-12-18T10:27:32;23.65;;;12.50;;
51556;SDS011;38766;53.194;5.532;2022-12-18T10:29:57;21.83;;;12.52;;
51556;SDS011;38766;53.194;5.532;2022-12-18T10:32:28;26.15;;;13.13;;
51556;SDS011;38766;53.194;5.532;2022-12-18T10:34:55;25.45;;;12.82;;
51556;SDS011;38766;53.194;5.532;2022-12-18T10:37:26;23.92;;;12.60;;
51556;SDS011;38766;53.194;5.532;2022-12-18T10:40:07;25.02;;;13.40;;
51556;SDS011;38766;53.194;5.532;2022-12-18T10:42:38;21.35;;;12.25;;
51556;SDS011;38766;53.194;5.532;2022-12-18T10:45:11;20.08;;;12.68;;
51556;SDS011;38766;53.194;5.532;2022-12-18T10:47:46;20.90;;;12.13;;
51556;SDS011;38766;53.194;5.532;2022-12-18T10:50:24;22.13;;;12.55;;
51556;SDS011;38766;53.194;5.532;2022-12-18T10:53:00;22.70;;;13.30;;
51556;SDS011;38766;53.194;5.532;2022-12-18T10:55:46;29.85;;;14.35;;
51556;SDS011;38766;53.194;5.532;2022-12-18T10:58:26;31.88;;;15.35;;
51556;SDS011;38766;53.194;5.532;2022-12-18T11:01:15;35.17;;;15.20;;
51556;SDS011;38766;53.194;5.532;2022-12-18T11:06:20;25.27;;;11.70;;
51556;SDS011;38766;53.194;5.532;2022-12-18T11:08:59;26.52;;;12.02;;
51556;SDS011;38766;53.194;5.532;2022-12-18T11:11:48;33.58;;;13.57;;
51556;SDS011;38766;53.194;5.532;2022-12-18T11:14:22;22.05;;;11.75;;
51556;SDS011;38766;53.194;5.532;2022-12-18T11:16:48;28.02;;;14.43;;
51556;SDS011;38766;53.194;5.532;2022-12-18T11:22:21;19.08;;;11.13;;
51556;SDS011;38766;53.194;5.532;2022-12-18T11:24:59;19.52;;;11.02;;
51556;SDS011;38766;53.194;5.532;2022-12-18T11:27:37;19.52;;;9.77;;
51556;SDS011;38766;53.194;5.532;2022-12-18T11:30:24;17.35;;;9.63;;
51556;SDS011;38766;53.194;5.532;2022-12-18T11:32:53;18.83;;;10.43;;
51556;SDS011;38766;53.194;5.532;2022-12-18T11:38:55;19.65;;;9.88;;
51556;SDS011;38766;53.194;5.532;2022-12-18T11:44:22;13.80;;;8.05;;
51556;SDS011;38766;53.194;5.532;2022-12-18T11:46:53;15.73;;;8.73;;
51556;SDS011;38766;53.194;5.532;2022-12-18T11:49:25;15.50;;;8.57;;
51556;SDS011;38766;53.194;5.532;2022-12-18T11:51:58;17.15;;;9.20;;
51556;SDS011;38766;53.194;5.532;2022-12-18T11:54:25;15.68;;;8.95;;
51556;SDS011;38766;53.194;5.532;2022-12-18T12:00:12;13.27;;;8.63;;
51556;SDS011;38766;53.194;5.532;2022-12-18T12:02:56;14.07;;;9.05;;
51556;SDS011;38766;53.194;5.532;2022-12-18T12:08:14;14.07;;;8.65;;
51556;SDS011;38766;53.194;5.532;2022-12-18T12:16:57;15.55;;;8.30;;
51556;SDS011;38766;53.194;5.532;2022-12-18T12:19:33;14.60;;;8.35;;
51556;SDS011;38766;53.194;5.532;2022-12-18T12:22:33;13.68;;;8.57;;
51556;SDS011;38766;53.194;5.532;2022-12-18T12:38:21;14.07;;;8.07;;
51556;SDS011;38766;53.194;5.532;2022-12-18T12:41:13;13.73;;;7.65;;
51556;SDS011;38766;53.194;5.532;2022-12-18T12:43:58;12.40;;;8.40;;
51556;SDS011;38766;53.194;5.532;2022-12-18T12:46:27;13.13;;;7.22;;
51556;SDS011;38766;53.194;5.532;2022-12-18T12:48:58;12.65;;;7.38;;
51556;SDS011;38766;53.194;5.532;2022-12-18T12:51:34;13.98;;;8.65;;
51556;SDS011;38766;53.194;5.532;2022-12-18T12:54:02;12.97;;;7.97;;
51556;SDS011;38766;53.194;5.532;2022-12-18T12:59:25;12.35;;;7.13;;
51556;SDS011;38766;53.194;5.532;2022-12-18T13:02:22;14.07;;;8.02;;
51556;SDS011;38766;53.194;5.532;2022-12-18T13:04:56;12.70;;;7.68;;
51556;SDS011;38766;53.194;5.532;2022-12-18T13:07:35;12.52;;;7.13;;
51556;SDS011;38766;53.194;5.532;2022-12-18T13:10:12;13.48;;;7.82;;
51556;SDS011;38766;53.194;5.532;2022-12-18T13:12:54;10.93;;;7.03;;
51556;SDS011;38766;53.194;5.532;2022-12-18T13:15:27;11.35;;;7.32;;
51556;SDS011;38766;53.194;5.532;2022-12-18T13:20:39;13.70;;;8.07;;
51556;SDS011;38766;53.194;5.532;2022-12-18T13:28:26;14.98;;;7.65;;
51556;SDS011;38766;53.194;5.532;2022-12-18T13:31:57;15.48;;;8.18;;
51556;SDS011;38766;53.194;5.532;2022-12-18T13:36:46;11.63;;;7.25;;
51556;SDS011;38766;53.194;5.532;2022-12-18T13:41:46;13.07;;;7.60;;
51556;SDS011;38766;53.194;5.532;2022-12-18T13:44:30;11.10;;;7.25;;
51556;SDS011;38766;53.194;5.532;2022-12-18T13:50:09;11.88;;;6.72;;
51556;SDS011;38766;53.194;5.532;2022-12-18T13:52:44;12.30;;;7.53;;
51556;SDS011;38766;53.194;5.532;2022-12-18T13:55:14;13.38;;;6.47;;
51556;SDS011;38766;53.194;5.532;2022-12-18T13:57:43;9.50;;;6.13;;
51556;SDS011;38766;53.194;5.532;2022-12-18T14:00:28;10.73;;;6.82;;
51556;SDS011;38766;53.194;5.532;2022-12-18T14:02:55;10.75;;;6.85;;
51556;SDS011;38766;53.194;5.532;2022-12-18T14:05:26;13.43;;;7.57;;
51556;SDS011;38766;53.194;5.532;2022-12-18T14:07:53;16.38;;;7.82;;
51556;SDS011;38766;53.194;5.532;2022-12-18T14:10:20;18.38;;;9.40;;
51556;SDS011;38766;53.194;5.532;2022-12-18T14:12:47;18.02;;;8.80;;
51556;SDS011;38766;53.194;5.532;2022-12-18T14:15:26;18.02;;;9.30;;
51556;SDS011;38766;53.194;5.532;2022-12-18T14:20:39;17.45;;;10.23;;
51556;SDS011;38766;53.194;5.532;2022-12-18T14:25:53;12.82;;;7.53;;
51556;SDS011;38766;53.194;5.532;2022-12-18T14:28:18;13.02;;;8.15;;
51556;SDS011;38766;53.194;5.532;2022-12-18T14:30:45;10.40;;;7.07;;
51556;SDS011;38766;53.194;5.532;2022-12-18T14:33:12;13.65;;;7.45;;
51556;SDS011;38766;53.194;5.532;2022-12-18T14:35:40;9.90;;;6.90;;
51556;SDS011;38766;53.194;5.532;2022-12-18T14:38:27;12.27;;;7.10;;
51556;SDS011;38766;53.194;5.532;2022-12-18T14:41:02;14.00;;;7.25;;
51556;SDS011;38766;53.194;5.532;2022-12-18T14:43:36;12.15;;;8.43;;
51556;SDS011;38766;53.194;5.532;2022-12-18T14:46:25;13.48;;;8.18;;
51556;SDS011;38766;53.194;5.532;2022-12-18T14:48:51;13.07;;;7.85;;
51556;SDS011;38766;53.194;5.532;2022-12-18T14:51:24;11.48;;;7.50;;
51556;SDS011;38766;53.194;5.532;2022-12-18T14:56:35;13.15;;;6.70;;
51556;SDS011;38766;53.194;5.532;2022-12-18T14:59:18;11.55;;;7.55;;
51556;SDS011;38766;53.194;5.532;2022-12-18T15:02:04;10.70;;;7.05;;
51556;SDS011;38766;53.194;5.532;2022-12-18T15:04:47;11.27;;;7.53;;
51556;SDS011;38766;53.194;5.532;2022-12-18T15:07:24;12.65;;;7.85;;
51556;SDS011;38766;53.194;5.532;2022-12-18T15:12:39;15.73;;;8.60;;
51556;SDS011;38766;53.194;5.532;2022-12-18T15:15:05;11.52;;;6.93;;
51556;SDS011;38766;53.194;5.532;2022-12-18T15:20:33;13.75;;;7.43;;
51556;SDS011;38766;53.194;5.532;2022-12-18T15:23:04;11.57;;;7.32;;
51556;SDS011;38766;53.194;5.532;2022-12-18T15:28:02;11.30;;;6.97;;
51556;SDS011;38766;53.194;5.532;2022-12-18T15:30:39;10.85;;;6.93;;
51556;SDS011;38766;53.194;5.532;2022-12-18T15:33:24;12.75;;;7.00;;
51556;SDS011;38766;53.194;5.532;2022-12-18T15:35:58;11.45;;;6.65;;
51556;SDS011;38766;53.194;5.532;2022-12-18T15:38:24;11.25;;;6.95;;
51556;SDS011;38766;53.194;5.532;2022-12-18T15:40:50;10.88;;;6.93;;
51556;SDS011;38766;53.194;5.532;2022-12-18T15:43:17;13.55;;;7.50;;
51556;SDS011;38766;53.194;5.532;2022-12-18T15:46:11;13.35;;;7.30;;
51556;SDS011;38766;53.194;5.532;2022-12-18T15:48:48;13.32;;;7.07;;
51556;SDS011;38766;53.194;5.532;2022-12-18T15:51:16;10.80;;;7.00;;
51556;SDS011;38766;53.194;5.532;2022-12-18T15:53:48;10.95;;;6.47;;
51556;SDS011;38766;53.194;5.532;2022-12-18T15:56:17;11.00;;;6.85;;
51556;SDS011;38766;53.194;5.532;2022-12-18T15:59:02;11.63;;;7.50;;
51556;SDS011;38766;53.194;5.532;2022-12-18T16:01:33;12.07;;;7.97;;
51556;SDS011;38766;53.194;5.532;2022-12-18T16:03:59;12.73;;;7.75;;
51556;SDS011;38766;53.194;5.532;2022-12-18T16:06:24;12.70;;;7.65;;
51556;SDS011;38766;53.194;5.532;2022-12-18T16:08:50;14.40;;;7.70;;
51556;SDS011;38766;53.194;5.532;2022-12-18T16:11:26;13.30;;;7.18;;
51556;SDS011;38766;53.194;5.532;2022-12-18T16:14:24;13.60;;;7.50;;
51556;SDS011;38766;53.194;5.532;2022-12-18T16:16:54;13.68;;;8.45;;
51556;SDS011;38766;53.194;5.532;2022-12-18T16:19:22;12.52;;;6.80;;
51556;SDS011;38766;53.194;5.532;2022-12-18T16:21:48;15.30;;;8.15;;
51556;SDS011;38766;53.194;5.532;2022-12-18T16:24:22;14.20;;;7.57;;
51556;SDS011;38766;53.194;5.532;2022-12-18T16:26:49;11.13;;;6.97;;
51556;SDS011;38766;53.194;5.532;2022-12-18T16:29:19;9.43;;;6.55;;
51556;SDS011;38766;53.194;5.532;2022-12-18T16:31:49;12.77;;;7.88;;
51556;SDS011;38766;53.194;5.532;2022-12-18T16:36:47;14.15;;;7.60;;
51556;SDS011;38766;53.194;5.532;2022-12-18T16:39:13;15.48;;;7.55;;
51556;SDS011;38766;53.194;5.532;2022-12-18T16:41:39;12.80;;;7.60;;
51556;SDS011;38766;53.194;5.532;2022-12-18T16:44:05;13.70;;;8.25;;
51556;SDS011;38766;53.194;5.532;2022-12-18T16:46:30;11.40;;;7.40;;
51556;SDS011;38766;53.194;5.532;2022-12-18T16:48:57;10.80;;;6.88;;
51556;SDS011;38766;53.194;5.532;2022-12-18T16:51:23;10.85;;;6.90;;
51556;SDS011;38766;53.194;5.532;2022-12-18T16:53:50;11.30;;;7.63;;
51556;SDS011;38766;53.194;5.532;2022-12-18T16:56:15;14.13;;;7.95;;